sensor_id;sensor_type;location;lat;lon;timestamp;temperature;humidity
67005;HTU21D;53920;51.094;5.902;2023-02-24T00:01:53;8.86;71.71
67005;HTU21D;53920;51.094;5.902;2023-02-24T00:04:26;8.86;71.55
67005;HTU21D;53920;51.094;5.902;2023-02-24T00:06:52;8.85;71.48
67005;HTU21D;53920;51.094;5.902;2023-02-24T00:09:21;8.83;71.12
67005;HTU21D;53920;51.094;5.902;2023-02-24T00:11:56;8.77;70.62
67005;HTU21D;53920;51.094;5.902;2023-02-24T00:14:25;8.73;70.54
67005;HTU21D;53920;51.094;5.902;2023-02-24T00:16:52;8.72;70.58
67005;HTU21D;53920;51.094;5.902;2023-02-24T00:19:21;8.67;70.52
67005;HTU21D;53920;51.094;5.902;2023-02-24T00:21:49;8.75;70.52
67005;HTU21D;53920;51.094;5.902;2023-02-24T00:24:16;8.65;70.64
67005;HTU21D;53920;51.094;5.902;2023-02-24T00:26:43;8.59;70.84
67005;HTU21D;53920;51.094;5.902;2023-02-24T00:29:11;8.52;70.95
67005;HTU21D;53920;51.094;5.902;2023-02-24T00:31:38;8.51;71.04
67005;HTU21D;53920;51.094;5.902;2023-02-24T00:34:07;8.45;70.83
67005;HTU21D;53920;51.094;5.902;2023-02-24T00:36:34;8.42;71.13
67005;HTU21D;53920;51.094;5.902;2023-02-24T00:39:03;8.42;70.93
67005;HTU21D;53920;51.094;5.902;2023-02-24T00:41:36;8.39;70.77
67005;HTU21D;53920;51.094;5.902;2023-02-24T00:44:06;8.41;71.16
67005;HTU21D;53920;51.094;5.902;2023-02-24T00:46:36;8.42;71.59
67005;HTU21D;53920;51.094;5.902;2023-02-24T00:49:05;8.39;71.73
67005;HTU21D;53920;51.094;5.902;2023-02-24T00:51:39;8.39;71.60
67005;HTU21D;53920;51.094;5.902;2023-02-24T00:54:06;8.41;71.51
67005;HTU21D;53920;51.094;5.902;2023-02-24T00:56:33;8.41;71.69
67005;HTU21D;53920;51.094;5.902;2023-02-24T00:59:01;8.42;71.98
67005;HTU21D;53920;51.094;5.902;2023-02-24T01:01:30;8.44;72.02
67005;HTU21D;53920;51.094;5.902;2023-02-24T01:04:01;8.46;71.76
67005;HTU21D;53920;51.094;5.902;2023-02-24T01:06:41;8.49;71.36
67005;HTU21D;53920;51.094;5.902;2023-02-24T01:09:14;8.51;71.37
67005;HTU21D;53920;51.094;5.902;2023-02-24T01:11:43;8.48;71.44
67005;HTU21D;53920;51.094;5.902;2023-02-24T01:14:30;8.49;71.55
67005;HTU21D;53920;51.094;5.902;2023-02-24T01:16:57;8.50;71.33
67005;HTU21D;53920;51.094;5.902;2023-02-24T01:19:27;8.51;71.18
67005;HTU21D;53920;51.094;5.902;2023-02-24T01:22:05;8.45;71.16
67005;HTU21D;53920;51.094;5.902;2023-02-24T01:24:34;8.42;71.18
67005;HTU21D;53920;51.094;5.902;2023-02-24T01:27:01;8.39;71.33
67005;HTU21D;53920;51.094;5.902;2023-02-24T01:29:27;8.39;71.32
67005;HTU21D;53920;51.094;5.902;2023-02-24T01:31:53;8.37;71.30
67005;HTU21D;53920;51.094;5.902;2023-02-24T01:34:24;8.38;71.52
67005;HTU21D;53920;51.094;5.902;2023-02-24T01:36:50;8.42;71.61
67005;HTU21D;53920;51.094;5.902;2023-02-24T01:39:19;8.38;71.59
67005;HTU21D;53920;51.094;5.902;2023-02-24T01:41:49;8.37;71.48
67005;HTU21D;53920;51.094;5.902;2023-02-24T01:46:49;8.29;71.15
67005;HTU21D;53920;51.094;5.902;2023-02-24T01:49:39;8.26;71.30
67005;HTU21D;53920;51.094;5.902;2023-02-24T01:52:09;8.21;71.47
67005;HTU21D;53920;51.094;5.902;2023-02-24T01:54:43;8.20;71.19
67005;HTU21D;53920;51.094;5.902;2023-02-24T01:57:16;8.19;71.08
67005;HTU21D;53920;51.094;5.902;2023-02-24T01:59:47;8.16;71.04
67005;HTU21D;53920;51.094;5.902;2023-02-24T02:02:16;8.12;71.11
67005;HTU21D;53920;51.094;5.902;2023-02-24T02:05:01;8.09;71.41
67005;HTU21D;53920;51.094;5.902;2023-02-24T02:07:28;8.12;71.27
67005;HTU21D;53920;51.094;5.902;2023-02-24T02:09:57;8.07;71.28
67005;HTU21D;53920;51.094;5.902;2023-02-24T02:12:32;8.06;71.27
67005;HTU21D;53920;51.094;5.902;2023-02-24T02:15:04;8.03;71.38
67005;HTU21D;53920;51.094;5.902;2023-02-24T02:42:24;7.94;70.28
67005;HTU21D;53920;51.094;5.902;2023-02-24T02:45:08;7.91;70.32
67005;HTU21D;53920;51.094;5.902;2023-02-24T02:47:48;7.93;70.64
67005;HTU21D;53920;51.094;5.902;2023-02-24T02:50:35;7.98;70.86
67005;HTU21D;53920;51.094;5.902;2023-02-24T02:53:23;8.00;70.78
67005;HTU21D;53920;51.094;5.902;2023-02-24T02:56:01;8.00;70.55
67005;HTU21D;53920;51.094;5.902;2023-02-24T02:58:35;7.99;70.67
67005;HTU21D;53920;51.094;5.902;2023-02-24T03:01:04;8.03;70.53
67005;HTU21D;53920;51.094;5.902;2023-02-24T03:03:40;8.04;70.27
67005;HTU21D;53920;51.094;5.902;2023-02-24T03:09:06;8.03;70.10
67005;HTU21D;53920;51.094;5.902;2023-02-24T03:11:51;8.00;70.13
67005;HTU21D;53920;51.094;5.902;2023-02-24T03:14:30;7.97;70.11
67005;HTU21D;53920;51.094;5.902;2023-02-24T03:17:07;7.97;70.34
67005;HTU21D;53920;51.094;5.902;2023-02-24T03:19:38;7.92;70.10
67005;HTU21D;53920;51.094;5.902;2023-02-24T03:22:10;7.90;69.95
67005;HTU21D;53920;51.094;5.902;2023-02-24T03:24:43;7.89;69.73
67005;HTU21D;53920;51.094;5.902;2023-02-24T03:27:20;7.89;69.78
67005;HTU21D;53920;51.094;5.902;2023-02-24T03:29:54;7.89;69.74
67005;HTU21D;53920;51.094;5.902;2023-02-24T03:32:30;7.90;70.08
67005;HTU21D;53920;51.094;5.902;2023-02-24T03:37:31;7.86;70.20
67005;HTU21D;53920;51.094;5.902;2023-02-24T03:40:02;7.85;70.39
67005;HTU21D;53920;51.094;5.902;2023-02-24T03:42:33;7.85;70.32
67005;HTU21D;53920;51.094;5.902;2023-02-24T03:45:00;7.85;70.32
67005;HTU21D;53920;51.094;5.902;2023-02-24T03:47:26;7.81;70.45
67005;HTU21D;53920;51.094;5.902;2023-02-24T03:49:52;7.76;70.20
67005;HTU21D;53920;51.094;5.902;2023-02-24T03:52:27;7.75;70.24
67005;HTU21D;53920;51.094;5.902;2023-02-24T03:55:28;7.75;70.19
67005;HTU21D;53920;51.094;5.902;2023-02-24T03:58:23;7.73;70.13
67005;HTU21D;53920;51.094;5.902;2023-02-24T04:01:17;7.67;69.97
67005;HTU21D;53920;51.094;5.902;2023-02-24T04:04:10;7.60;69.90
67005;HTU21D;53920;51.094;5.902;2023-02-24T04:10:16;7.55;70.13
67005;HTU21D;53920;51.094;5.902;2023-02-24T04:13:00;7.53;70.01
67005;HTU21D;53920;51.094;5.902;2023-02-24T04:15:40;7.52;70.10
67005;HTU21D;53920;51.094;5.902;2023-02-24T04:18:21;7.55;70.34
67005;HTU21D;53920;51.094;5.902;2023-02-24T04:20:49;7.59;70.42
67005;HTU21D;53920;51.094;5.902;2023-02-24T04:23:26;7.67;70.34
67005;HTU21D;53920;51.094;5.902;2023-02-24T04:25:53;7.64;70.35
67005;HTU21D;53920;51.094;5.902;2023-02-24T04:28:26;7.63;70.38
67005;HTU21D;53920;51.094;5.902;2023-02-24T04:31:06;7.59;70.18
67005;HTU21D;53920;51.094;5.902;2023-02-24T04:33:36;7.59;70.26
67005;HTU21D;53920;51.094;5.902;2023-02-24T04:36:06;7.58;70.07
67005;HTU21D;53920;51.094;5.902;2023-02-24T04:38:36;7.54;69.96
67005;HTU21D;53920;51.094;5.902;2023-02-24T04:41:02;7.55;69.90
67005;HTU21D;53920;51.094;5.902;2023-02-24T04:43:29;7.56;69.96
67005;HTU21D;53920;51.094;5.902;2023-02-24T04:45:55;7.54;70.06
67005;HTU21D;53920;51.094;5.902;2023-02-24T04:48:21;7.54;70.20
67005;HTU21D;53920;51.094;5.902;2023-02-24T04:50:47;7.50;70.10
67005;HTU21D;53920;51.094;5.902;2023-02-24T04:53:20;7.46;70.00
67005;HTU21D;53920;51.094;5.902;2023-02-24T04:55:52;7.40;69.97
67005;HTU21D;53920;51.094;5.902;2023-02-24T04:58:21;7.33;70.09
67005;HTU21D;53920;51.094;5.902;2023-02-24T05:00:50;7.33;70.23
67005;HTU21D;53920;51.094;5.902;2023-02-24T05:03:22;7.32;70.19
67005;HTU21D;53920;51.094;5.902;2023-02-24T05:05:56;7.27;69.91
67005;HTU21D;53920;51.094;5.902;2023-02-24T05:08:24;7.20;69.89
67005;HTU21D;53920;51.094;5.902;2023-02-24T05:10:51;7.15;70.01
67005;HTU21D;53920;51.094;5.902;2023-02-24T05:13:23;7.12;70.15
67005;HTU21D;53920;51.094;5.902;2023-02-24T05:16:05;7.09;70.17
67005;HTU21D;53920;51.094;5.902;2023-02-24T05:18:32;7.09;70.22
67005;HTU21D;53920;51.094;5.902;2023-02-24T05:21:08;7.05;70.34
67005;HTU21D;53920;51.094;5.902;2023-02-24T05:23:53;7.02;70.57
67005;HTU21D;53920;51.094;5.902;2023-02-24T05:26:21;6.98;70.96
67005;HTU21D;53920;51.094;5.902;2023-02-24T05:28:52;6.93;71.00
67005;HTU21D;53920;51.094;5.902;2023-02-24T05:31:24;6.85;71.26
67005;HTU21D;53920;51.094;5.902;2023-02-24T05:33:56;6.83;71.41
67005;HTU21D;53920;51.094;5.902;2023-02-24T05:36:25;6.83;71.50
67005;HTU21D;53920;51.094;5.902;2023-02-24T05:38:54;6.84;71.37
67005;HTU21D;53920;51.094;5.902;2023-02-24T05:41:26;6.85;71.40
67005;HTU21D;53920;51.094;5.902;2023-02-24T05:44:03;6.83;71.47
67005;HTU21D;53920;51.094;5.902;2023-02-24T05:46:38;6.83;71.48
67005;HTU21D;53920;51.094;5.902;2023-02-24T05:49:09;6.82;71.13
67005;HTU21D;53920;51.094;5.902;2023-02-24T05:51:38;6.76;70.92
67005;HTU21D;53920;51.094;5.902;2023-02-24T05:54:12;6.68;71.32
67005;HTU21D;53920;51.094;5.902;2023-02-24T05:56:40;6.57;71.87
67005;HTU21D;53920;51.094;5.902;2023-02-24T05:59:10;6.46;71.76
67005;HTU21D;53920;51.094;5.902;2023-02-24T06:01:39;6.38;72.08
67005;HTU21D;53920;51.094;5.902;2023-02-24T06:04:08;6.34;72.46
67005;HTU21D;53920;51.094;5.902;2023-02-24T06:06:40;6.26;72.26
67005;HTU21D;53920;51.094;5.902;2023-02-24T06:09:11;6.21;72.43
67005;HTU21D;53920;51.094;5.902;2023-02-24T06:11:39;6.12;72.68
67005;HTU21D;53920;51.094;5.902;2023-02-24T06:14:07;6.01;73.22
67005;HTU21D;53920;51.094;5.902;2023-02-24T06:16:34;5.94;73.83
67005;HTU21D;53920;51.094;5.902;2023-02-24T06:19:00;5.85;74.01
67005;HTU21D;53920;51.094;5.902;2023-02-24T06:21:26;5.82;74.39
67005;HTU21D;53920;51.094;5.902;2023-02-24T06:23:55;5.93;74.14
67005;HTU21D;53920;51.094;5.902;2023-02-24T06:26:22;5.98;73.72
67005;HTU21D;53920;51.094;5.902;2023-02-24T06:28:52;6.07;73.32
67005;HTU21D;53920;51.094;5.902;2023-02-24T06:31:19;6.14;73.03
67005;HTU21D;53920;51.094;5.902;2023-02-24T06:33:46;6.23;72.90
67005;HTU21D;53920;51.094;5.902;2023-02-24T06:36:13;6.29;72.64
67005;HTU21D;53920;51.094;5.902;2023-02-24T06:38:40;6.34;72.65
67005;HTU21D;53920;51.094;5.902;2023-02-24T06:41:06;6.43;72.43
67005;HTU21D;53920;51.094;5.902;2023-02-24T06:43:40;6.51;72.26
67005;HTU21D;53920;51.094;5.902;2023-02-24T06:46:10;6.60;72.06
67005;HTU21D;53920;51.094;5.902;2023-02-24T06:48:38;6.66;71.96
67005;HTU21D;53920;51.094;5.902;2023-02-24T06:51:07;6.73;71.88
67005;HTU21D;53920;51.094;5.902;2023-02-24T06:53:34;6.80;71.61
67005;HTU21D;53920;51.094;5.902;2023-02-24T06:56:05;6.86;71.28
67005;HTU21D;53920;51.094;5.902;2023-02-24T06:58:41;6.89;71.06
67005;HTU21D;53920;51.094;5.902;2023-02-24T07:01:17;6.86;71.00
67005;HTU21D;53920;51.094;5.902;2023-02-24T07:03:44;6.83;71.03
67005;HTU21D;53920;51.094;5.902;2023-02-24T07:06:32;6.79;71.03
67005;HTU21D;53920;51.094;5.902;2023-02-24T07:09:02;6.78;70.87
67005;HTU21D;53920;51.094;5.902;2023-02-24T07:11:31;6.75;70.77
67005;HTU21D;53920;51.094;5.902;2023-02-24T07:13:58;6.74;70.78
67005;HTU21D;53920;51.094;5.902;2023-02-24T07:16:25;6.74;70.69
67005;HTU21D;53920;51.094;5.902;2023-02-24T07:18:55;6.74;70.30
67005;HTU21D;53920;51.094;5.902;2023-02-24T07:21:22;6.76;70.25
67005;HTU21D;53920;51.094;5.902;2023-02-24T07:23:51;6.74;70.20
67005;HTU21D;53920;51.094;5.902;2023-02-24T07:26:24;6.68;70.14
67005;HTU21D;53920;51.094;5.902;2023-02-24T07:28:51;6.58;70.20
67005;HTU21D;53920;51.094;5.902;2023-02-24T07:31:21;6.59;70.47
67005;HTU21D;53920;51.094;5.902;2023-02-24T07:33:52;6.64;70.26
67005;HTU21D;53920;51.094;5.902;2023-02-24T07:36:20;6.72;69.87
67005;HTU21D;53920;51.094;5.902;2023-02-24T07:38:51;6.81;69.31
67005;HTU21D;53920;51.094;5.902;2023-02-24T07:41:19;6.80;68.94
67005;HTU21D;53920;51.094;5.902;2023-02-24T07:43:49;6.76;68.69
67005;HTU21D;53920;51.094;5.902;2023-02-24T07:46:19;6.81;68.55
67005;HTU21D;53920;51.094;5.902;2023-02-24T07:48:45;6.86;68.02
67005;HTU21D;53920;51.094;5.902;2023-02-24T07:51:14;6.97;68.01
67005;HTU21D;53920;51.094;5.902;2023-02-24T07:53:42;7.02;67.65
67005;HTU21D;53920;51.094;5.902;2023-02-24T07:56:10;7.10;67.41
67005;HTU21D;53920;51.094;5.902;2023-02-24T07:58:41;7.16;67.17
67005;HTU21D;53920;51.094;5.902;2023-02-24T08:01:09;7.18;67.09
67005;HTU21D;53920;51.094;5.902;2023-02-24T08:03:45;7.18;66.87
67005;HTU21D;53920;51.094;5.902;2023-02-24T08:06:11;7.16;66.57
67005;HTU21D;53920;51.094;5.902;2023-02-24T08:08:43;7.23;66.43
67005;HTU21D;53920;51.094;5.902;2023-02-24T08:11:47;7.31;65.95
67005;HTU21D;53920;51.094;5.902;2023-02-24T08:14:23;7.35;65.29
67005;HTU21D;53920;51.094;5.902;2023-02-24T08:16:54;7.40;64.72
67005;HTU21D;53920;51.094;5.902;2023-02-24T08:19:29;7.46;64.43
67005;HTU21D;53920;51.094;5.902;2023-02-24T08:22:15;7.54;64.12
67005;HTU21D;53920;51.094;5.902;2023-02-24T08:24:51;7.60;63.89
67005;HTU21D;53920;51.094;5.902;2023-02-24T08:27:21;7.59;63.73
67005;HTU21D;53920;51.094;5.902;2023-02-24T08:29:50;7.60;63.70
67005;HTU21D;53920;51.094;5.902;2023-02-24T08:34:49;7.50;63.45
67005;HTU21D;53920;51.094;5.902;2023-02-24T08:37:15;7.49;63.66
67005;HTU21D;53920;51.094;5.902;2023-02-24T08:39:42;7.52;63.80
67005;HTU21D;53920;51.094;5.902;2023-02-24T08:42:09;7.54;63.60
67005;HTU21D;53920;51.094;5.902;2023-02-24T08:44:39;7.59;63.66
67005;HTU21D;53920;51.094;5.902;2023-02-24T08:47:05;7.78;63.40
67005;HTU21D;53920;51.094;5.902;2023-02-24T08:49:34;7.89;62.92
67005;HTU21D;53920;51.094;5.902;2023-02-24T08:52:00;8.01;62.70
67005;HTU21D;53920;51.094;5.902;2023-02-24T08:54:27;7.98;62.66
67005;HTU21D;53920;51.094;5.902;2023-02-24T08:56:57;7.99;62.78
67005;HTU21D;53920;51.094;5.902;2023-02-24T08:59:36;8.11;62.37
67005;HTU21D;53920;51.094;5.902;2023-02-24T09:02:20;8.11;62.10
67005;HTU21D;53920;51.094;5.902;2023-02-24T09:07:27;8.21;61.89
67005;HTU21D;53920;51.094;5.902;2023-02-24T09:09:54;8.37;61.53
67005;HTU21D;53920;51.094;5.902;2023-02-24T09:12:27;9.07;59.96
67005;HTU21D;53920;51.094;5.902;2023-02-24T09:14:56;9.94;57.14
67005;HTU21D;53920;51.094;5.902;2023-02-24T09:17:27;9.88;56.83
67005;HTU21D;53920;51.094;5.902;2023-02-24T09:20:21;9.41;57.96
67005;HTU21D;53920;51.094;5.902;2023-02-24T09:23:06;9.11;58.43
67005;HTU21D;53920;51.094;5.902;2023-02-24T09:25:36;8.88;58.99
67005;HTU21D;53920;51.094;5.902;2023-02-24T09:28:14;8.88;59.09
67005;HTU21D;53920;51.094;5.902;2023-02-24T09:30:49;9.05;58.41
67005;HTU21D;53920;51.094;5.902;2023-02-24T09:33:30;9.18;57.93
67005;HTU21D;53920;51.094;5.902;2023-02-24T09:36:16;9.56;56.74
67005;HTU21D;53920;51.094;5.902;2023-02-24T09:38:51;10.01;55.47
67005;HTU21D;53920;51.094;5.902;2023-02-24T09:41:47;10.00;55.26
67005;HTU21D;53920;51.094;5.902;2023-02-24T09:44:48;9.88;56.11
67005;HTU21D;53920;51.094;5.902;2023-02-24T09:50:37;9.67;55.89
67005;HTU21D;53920;51.094;5.902;2023-02-24T09:53:27;9.54;56.07
67005;HTU21D;53920;51.094;5.902;2023-02-24T09:56:15;9.19;56.17
67005;HTU21D;53920;51.094;5.902;2023-02-24T10:01:42;8.98;55.94
67005;HTU21D;53920;51.094;5.902;2023-02-24T10:09:28;8.73;55.94
67005;HTU21D;53920;51.094;5.902;2023-02-24T10:12:07;8.55;56.16
67005;HTU21D;53920;51.094;5.902;2023-02-24T10:14:59;8.37;56.43
67005;HTU21D;53920;51.094;5.902;2023-02-24T10:17:51;8.24;56.66
67005;HTU21D;53920;51.094;5.902;2023-02-24T10:20:21;8.24;57.00
67005;HTU21D;53920;51.094;5.902;2023-02-24T10:25:45;8.19;56.82
67005;HTU21D;53920;51.094;5.902;2023-02-24T10:28:41;8.24;57.02
67005;HTU21D;53920;51.094;5.902;2023-02-24T10:31:24;8.33;57.18
67005;HTU21D;53920;51.094;5.902;2023-02-24T10:34:01;8.24;56.95
67005;HTU21D;53920;51.094;5.902;2023-02-24T10:36:32;8.15;57.09
67005;HTU21D;53920;51.094;5.902;2023-02-24T10:39:18;8.15;57.24
67005;HTU21D;53920;51.094;5.902;2023-02-24T10:41:54;8.18;57.32
67005;HTU21D;53920;51.094;5.902;2023-02-24T10:44:46;8.12;57.55
67005;HTU21D;53920;51.094;5.902;2023-02-24T10:47:24;8.12;57.61
67005;HTU21D;53920;51.094;5.902;2023-02-24T10:50:04;8.02;58.04
67005;HTU21D;53920;51.094;5.902;2023-02-24T10:52:40;8.04;58.41
67005;HTU21D;53920;51.094;5.902;2023-02-24T10:58:33;7.94;59.35
67005;HTU21D;53920;51.094;5.902;2023-02-24T11:01:12;7.83;59.95
67005;HTU21D;53920;51.094;5.902;2023-02-24T11:03:49;7.70;60.66
67005;HTU21D;53920;51.094;5.902;2023-02-24T11:06:32;7.53;61.41
67005;HTU21D;53920;51.094;5.902;2023-02-24T11:09:19;7.45;61.76
67005;HTU21D;53920;51.094;5.902;2023-02-24T11:15:20;7.61;61.84
67005;HTU21D;53920;51.094;5.902;2023-02-24T11:18:20;7.76;61.76
67005;HTU21D;53920;51.094;5.902;2023-02-24T11:20:52;7.85;61.71
67005;HTU21D;53920;51.094;5.902;2023-02-24T11:23:23;7.70;62.24
67005;HTU21D;53920;51.094;5.902;2023-02-24T11:25:58;7.63;63.31
67005;HTU21D;53920;51.094;5.902;2023-02-24T11:36:44;7.75;63.85
67005;HTU21D;53920;51.094;5.902;2023-02-24T11:41:53;8.16;63.28
67005;HTU21D;53920;51.094;5.902;2023-02-24T11:44:35;8.29;63.03
67005;HTU21D;53920;51.094;5.902;2023-02-24T11:47:12;8.33;62.44
67005;HTU21D;53920;51.094;5.902;2023-02-24T11:49:50;8.42;62.21
67005;HTU21D;53920;51.094;5.902;2023-02-24T11:52:26;8.41;62.28
67005;HTU21D;53920;51.094;5.902;2023-02-24T11:54:57;8.44;62.31
67005;HTU21D;53920;51.094;5.902;2023-02-24T11:57:40;8.42;61.92
67005;HTU21D;53920;51.094;5.902;2023-02-24T12:00:17;8.42;61.71
67005;HTU21D;53920;51.094;5.902;2023-02-24T12:03:49;8.50;61.73
67005;HTU21D;53920;51.094;5.902;2023-02-24T12:05:56;8.45;61.36
67005;HTU21D;53920;51.094;5.902;2023-02-24T12:08:35;8.39;61.31
67005;HTU21D;53920;51.094;5.902;2023-02-24T12:13:51;8.43;61.44
67005;HTU21D;53920;51.094;5.902;2023-02-24T12:16:30;8.43;61.34
67005;HTU21D;53920;51.094;5.902;2023-02-24T12:19:03;8.47;61.60
67005;HTU21D;53920;51.094;5.902;2023-02-24T12:21:43;8.49;61.90
67005;HTU21D;53920;51.094;5.902;2023-02-24T12:24:14;8.48;61.89
67005;HTU21D;53920;51.094;5.902;2023-02-24T12:40:39;8.36;63.59
67005;HTU21D;53920;51.094;5.902;2023-02-24T12:43:57;8.33;63.70
67005;HTU21D;53920;51.094;5.902;2023-02-24T12:46:36;8.35;64.01
67005;HTU21D;53920;51.094;5.902;2023-02-24T12:49:21;8.36;63.87
67005;HTU21D;53920;51.094;5.902;2023-02-24T12:52:13;8.35;63.43
67005;HTU21D;53920;51.094;5.902;2023-02-24T13:00:20;8.38;63.63
67005;HTU21D;53920;51.094;5.902;2023-02-24T13:06:11;8.44;63.52
67005;HTU21D;53920;51.094;5.902;2023-02-24T13:08:45;8.37;63.50
67005;HTU21D;53920;51.094;5.902;2023-02-24T13:16:39;8.41;63.52
67005;HTU21D;53920;51.094;5.902;2023-02-24T13:27:20;8.34;63.50
67005;HTU21D;53920;51.094;5.902;2023-02-24T13:29:49;8.37;63.56
67005;HTU21D;53920;51.094;5.902;2023-02-24T13:34:51;8.35;63.40
67005;HTU21D;53920;51.094;5.902;2023-02-24T13:37:35;8.42;63.36
67005;HTU21D;53920;51.094;5.902;2023-02-24T13:42:55;8.44;63.24
67005;HTU21D;53920;51.094;5.902;2023-02-24T13:45:30;8.42;63.69
67005;HTU21D;53920;51.094;5.902;2023-02-24T14:02:00;8.06;65.77
67005;HTU21D;53920;51.094;5.902;2023-02-24T14:04:30;8.12;65.87
67005;HTU21D;53920;51.094;5.902;2023-02-24T14:07:10;8.14;65.92
67005;HTU21D;53920;51.094;5.902;2023-02-24T14:09:42;8.19;65.77
67005;HTU21D;53920;51.094;5.902;2023-02-24T14:12:19;8.22;65.98
67005;HTU21D;53920;51.094;5.902;2023-02-24T14:14:48;8.26;66.04
67005;HTU21D;53920;51.094;5.902;2023-02-24T14:17:35;8.19;66.38
67005;HTU21D;53920;51.094;5.902;2023-02-24T14:20:21;8.05;67.34
67005;HTU21D;53920;51.094;5.902;2023-02-24T14:22:51;8.01;67.65
67005;HTU21D;53920;51.094;5.902;2023-02-24T14:25:19;8.02;67.56
67005;HTU21D;53920;51.094;5.902;2023-02-24T14:27:49;7.99;67.78
67005;HTU21D;53920;51.094;5.902;2023-02-24T14:30:27;7.99;67.78
67005;HTU21D;53920;51.094;5.902;2023-02-24T14:32:56;8.02;67.84
67005;HTU21D;53920;51.094;5.902;2023-02-24T14:35:44;8.02;68.03
67005;HTU21D;53920;51.094;5.902;2023-02-24T14:38:38;8.05;68.26
67005;HTU21D;53920;51.094;5.902;2023-02-24T14:41:14;8.05;68.10
67005;HTU21D;53920;51.094;5.902;2023-02-24T14:43:42;8.11;68.28
67005;HTU21D;53920;51.094;5.902;2023-02-24T14:46:08;8.17;68.12
67005;HTU21D;53920;51.094;5.902;2023-02-24T14:48:34;8.17;68.19
67005;HTU21D;53920;51.094;5.902;2023-02-24T14:51:06;8.17;68.18
67005;HTU21D;53920;51.094;5.902;2023-02-24T14:53:41;8.15;68.36
67005;HTU21D;53920;51.094;5.902;2023-02-24T14:56:11;8.06;68.66
67005;HTU21D;53920;51.094;5.902;2023-02-24T14:58:49;8.02;69.14
67005;HTU21D;53920;51.094;5.902;2023-02-24T15:01:33;7.99;69.44
67005;HTU21D;53920;51.094;5.902;2023-02-24T15:04:14;8.00;69.96
67005;HTU21D;53920;51.094;5.902;2023-02-24T15:06:46;8.01;70.22
67005;HTU21D;53920;51.094;5.902;2023-02-24T15:09:19;7.92;70.68
67005;HTU21D;53920;51.094;5.902;2023-02-24T15:11:48;7.91;71.36
67005;HTU21D;53920;51.094;5.902;2023-02-24T15:14:23;7.92;71.77
67005;HTU21D;53920;51.094;5.902;2023-02-24T15:16:56;7.84;72.13
67005;HTU21D;53920;51.094;5.902;2023-02-24T15:19:38;7.81;72.69
67005;HTU21D;53920;51.094;5.902;2023-02-24T15:24:51;7.84;72.70
67005;HTU21D;53920;51.094;5.902;2023-02-24T15:27:26;7.85;72.66
67005;HTU21D;53920;51.094;5.902;2023-02-24T15:30:20;7.88;72.63
67005;HTU21D;53920;51.094;5.902;2023-02-24T15:32:59;7.90;72.47
67005;HTU21D;53920;51.094;5.902;2023-02-24T15:35:26;7.91;72.41
67005;HTU21D;53920;51.094;5.902;2023-02-24T15:37:52;7.87;72.57
67005;HTU21D;53920;51.094;5.902;2023-02-24T15:40:23;7.83;72.72
67005;HTU21D;53920;51.094;5.902;2023-02-24T15:42:58;7.83;72.88
67005;HTU21D;53920;51.094;5.902;2023-02-24T15:45:29;7.81;73.01
67005;HTU21D;53920;51.094;5.902;2023-02-24T15:47:59;7.85;73.15
67005;HTU21D;53920;51.094;5.902;2023-02-24T15:50:26;7.87;73.06
67005;HTU21D;53920;51.094;5.902;2023-02-24T15:52:57;7.81;73.18
67005;HTU21D;53920;51.094;5.902;2023-02-24T15:55:27;7.76;73.61
67005;HTU21D;53920;51.094;5.902;2023-02-24T15:58:02;7.74;73.91
67005;HTU21D;53920;51.094;5.902;2023-02-24T16:00:28;7.76;73.86
67005;HTU21D;53920;51.094;5.902;2023-02-24T16:02:56;7.75;73.98
67005;HTU21D;53920;51.094;5.902;2023-02-24T16:05:23;7.75;73.92
67005;HTU21D;53920;51.094;5.902;2023-02-24T16:07:50;7.77;73.99
67005;HTU21D;53920;51.094;5.902;2023-02-24T16:10:24;7.82;73.97
67005;HTU21D;53920;51.094;5.902;2023-02-24T16:12:59;7.86;73.82
67005;HTU21D;53920;51.094;5.902;2023-02-24T16:15:30;7.87;73.81
67005;HTU21D;53920;51.094;5.902;2023-02-24T16:17:57;7.85;73.90
67005;HTU21D;53920;51.094;5.902;2023-02-24T16:20:26;7.78;74.24
67005;HTU21D;53920;51.094;5.902;2023-02-24T16:22:54;7.82;74.41
67005;HTU21D;53920;51.094;5.902;2023-02-24T16:25:21;7.89;74.27
67005;HTU21D;53920;51.094;5.902;2023-02-24T16:27:47;7.83;74.44
67005;HTU21D;53920;51.094;5.902;2023-02-24T16:30:18;7.88;74.29
67005;HTU21D;53920;51.094;5.902;2023-02-24T16:32:45;7.91;74.09
67005;HTU21D;53920;51.094;5.902;2023-02-24T16:35:12;7.87;74.28
67005;HTU21D;53920;51.094;5.902;2023-02-24T16:37:38;7.82;74.49
67005;HTU21D;53920;51.094;5.902;2023-02-24T16:40:17;7.84;74.59
67005;HTU21D;53920;51.094;5.902;2023-02-24T16:42:46;7.88;74.47
67005;HTU21D;53920;51.094;5.902;2023-02-24T16:45:12;7.92;74.35
67005;HTU21D;53920;51.094;5.902;2023-02-24T16:47:38;7.96;74.30
67005;HTU21D;53920;51.094;5.902;2023-02-24T16:50:04;7.93;74.25
67005;HTU21D;53920;51.094;5.902;2023-02-24T16:52:31;7.94;74.38
67005;HTU21D;53920;51.094;5.902;2023-02-24T16:54:57;7.94;74.41
67005;HTU21D;53920;51.094;5.902;2023-02-24T16:57:23;7.93;74.35
67005;HTU21D;53920;51.094;5.902;2023-02-24T16:59:53;7.90;74.64
67005;HTU21D;53920;51.094;5.902;2023-02-24T17:02:23;7.85;74.82
67005;HTU21D;53920;51.094;5.902;2023-02-24T17:04:50;7.83;74.96
67005;HTU21D;53920;51.094;5.902;2023-02-24T17:07:16;7.82;74.91
67005;HTU21D;53920;51.094;5.902;2023-02-24T17:09:45;7.77;75.09
67005;HTU21D;53920;51.094;5.902;2023-02-24T17:12:20;7.79;75.20
67005;HTU21D;53920;51.094;5.902;2023-02-24T17:14:46;7.75;75.30
67005;HTU21D;53920;51.094;5.902;2023-02-24T17:17:12;7.70;75.49
67005;HTU21D;53920;51.094;5.902;2023-02-24T17:19:37;7.63;75.76
67005;HTU21D;53920;51.094;5.902;2023-02-24T17:22:04;7.55;75.85
67005;HTU21D;53920;51.094;5.902;2023-02-24T17:24:30;7.46;75.92
67005;HTU21D;53920;51.094;5.902;2023-02-24T17:26:55;7.38;75.89
67005;HTU21D;53920;51.094;5.902;2023-02-24T17:29:26;7.28;75.73
67005;HTU21D;53920;51.094;5.902;2023-02-24T17:31:51;7.23;75.54
67005;HTU21D;53920;51.094;5.902;2023-02-24T17:34:17;7.22;75.15
67005;HTU21D;53920;51.094;5.902;2023-02-24T17:36:45;7.19;74.80
67005;HTU21D;53920;51.094;5.902;2023-02-24T17:39:11;7.20;74.51
67005;HTU21D;53920;51.094;5.902;2023-02-24T17:41:38;7.22;74.38
67005;HTU21D;53920;51.094;5.902;2023-02-24T17:44:04;7.18;74.45
67005;HTU21D;53920;51.094;5.902;2023-02-24T17:46:30;7.17;74.57
67005;HTU21D;53920;51.094;5.902;2023-02-24T17:48:56;7.15;74.58
67005;HTU21D;53920;51.094;5.902;2023-02-24T17:51:21;7.17;74.52
67005;HTU21D;53920;51.094;5.902;2023-02-24T17:53:47;7.17;74.40
67005;HTU21D;53920;51.094;5.902;2023-02-24T17:56:13;7.14;74.18
67005;HTU21D;53920;51.094;5.902;2023-02-24T17:58:39;7.09;74.15
67005;HTU21D;53920;51.094;5.902;2023-02-24T18:01:05;7.03;74.12
67005;HTU21D;53920;51.094;5.902;2023-02-24T18:03:34;7.07;73.83
67005;HTU21D;53920;51.094;5.902;2023-02-24T18:06:03;7.14;73.41
67005;HTU21D;53920;51.094;5.902;2023-02-24T18:08:31;7.24;72.93
67005;HTU21D;53920;51.094;5.902;2023-02-24T18:10:57;7.28;72.61
67005;HTU21D;53920;51.094;5.902;2023-02-24T18:13:24;7.26;72.34
67005;HTU21D;53920;51.094;5.902;2023-02-24T18:15:51;7.22;72.28
67005;HTU21D;53920;51.094;5.902;2023-02-24T18:18:16;7.17;72.13
67005;HTU21D;53920;51.094;5.902;2023-02-24T18:20:43;7.27;71.83